createdAt,value
2018-08-10T00:02:22.801Z,101069.56
2018-08-10T00:04:53.460Z,101092.99
2018-08-10T00:07:24.287Z,101097.11
2018-08-10T00:09:54.993Z,101092.81
2018-08-10T00:12:26.026Z,101100.11
2018-08-10T00:14:56.753Z,101099.23
2018-08-10T00:17:27.346Z,101106.91
2018-08-10T00:19:57.898Z,101115.20
2018-08-10T00:22:28.175Z,101123.38
2018-08-10T00:24:58.450Z,101129.17
2018-08-10T00:27:28.764Z,101137.36
2018-08-10T00:29:58.947Z,101142.23
2018-08-10T00:32:29.094Z,101143.21
2018-08-10T00:34:59.255Z,101159.28
2018-08-10T00:37:29.359Z,101151.30
2018-08-10T00:39:59.601Z,101161.97
2018-08-10T00:42:29.875Z,101175.48
2018-08-10T00:45:00.149Z,101166.35
2018-08-10T00:47:30.333Z,101175.29
2018-08-10T00:50:00.420Z,101191.88
2018-08-10T00:52:30.629Z,101188.27
2018-08-10T00:55:00.816Z,101199.11
2018-08-10T00:57:30.953Z,101197.19
2018-08-10T01:00:01.156Z,101203.28
2018-08-10T01:02:31.860Z,101200.83
2018-08-10T01:05:02.097Z,101195.99
2018-08-10T01:07:32.197Z,101212.48
2018-08-10T01:10:02.349Z,101219.52
2018-08-10T01:12:32.480Z,101224.85
2018-08-10T01:15:02.625Z,101226.75
2018-08-10T01:17:32.800Z,101227.91
2018-08-10T01:20:04.569Z,101223.23
2018-08-10T01:22:38.729Z,101230.95
2018-08-10T01:25:08.985Z,101227.72
2018-08-10T01:27:44.088Z,101224.69
2018-08-10T01:30:14.345Z,101238.95
2018-08-10T01:32:44.470Z,101233.24
2018-08-10T01:35:14.591Z,101253.22
2018-08-10T01:37:44.748Z,101251.67
2018-08-10T01:40:14.946Z,101247.27
2018-08-10T01:42:45.096Z,101255.64
2018-08-10T01:45:15.268Z,101262.73
2018-08-10T01:47:45.424Z,101259.34
2018-08-10T01:50:15.746Z,101273.34
2018-08-10T01:52:45.965Z,101277.13
2018-08-10T01:55:16.195Z,101275.98
2018-08-10T01:57:46.370Z,101276.73
2018-08-10T02:00:16.510Z,101282.00
2018-08-10T02:02:46.729Z,101282.45
2018-08-10T02:05:17.150Z,101276.46
2018-08-10T02:07:47.253Z,101282.16
2018-08-10T02:10:18.856Z,101293.59
2018-08-10T02:12:58.545Z,101295.21
2018-08-10T02:15:28.677Z,101299.09
2018-08-10T02:17:58.902Z,101306.27
2018-08-10T02:20:29.036Z,101304.93
2018-08-10T02:22:59.152Z,101304.70
2018-08-10T02:25:29.331Z,101310.07
2018-08-10T02:27:59.490Z,101314.28
2018-08-10T02:30:29.645Z,101324.81
2018-08-10T02:32:59.717Z,101327.66
2018-08-10T02:35:29.814Z,101327.48
2018-08-10T02:37:59.874Z,101330.27
2018-08-10T02:40:30.075Z,101333.62
2018-08-10T02:43:00.186Z,101337.25
2018-08-10T02:45:30.355Z,101337.33
2018-08-10T02:48:00.449Z,101334.66
2018-08-10T02:50:30.675Z,101346.94
2018-08-10T02:53:00.811Z,101348.30
2018-08-10T02:55:31.576Z,101359.88
2018-08-10T02:58:01.696Z,101365.92
2018-08-10T03:00:31.831Z,101358.09
2018-08-10T03:03:01.885Z,101373.83
2018-08-10T03:05:32.001Z,101374.20
2018-08-10T03:08:02.237Z,101376.81
2018-08-10T03:10:32.451Z,101382.97
2018-08-10T03:13:02.621Z,101385.58
2018-08-10T03:15:32.828Z,101391.40
2018-08-10T03:18:03.426Z,101392.60
2018-08-10T03:20:33.581Z,101397.94
2018-08-10T03:23:03.799Z,101401.55
2018-08-10T03:25:33.925Z,101402.03
2018-08-10T03:28:04.089Z,101414.72
2018-08-10T03:30:34.179Z,101414.65
2018-08-10T03:33:04.531Z,101412.16
2018-08-10T03:35:34.818Z,101426.75
2018-08-10T03:38:04.924Z,101423.98
2018-08-10T03:40:35.061Z,101420.71
2018-08-10T03:43:05.131Z,101429.17
2018-08-10T03:45:35.237Z,101427.77
2018-08-10T03:48:05.755Z,101428.89
2018-08-10T03:50:35.916Z,101430.70
2018-08-10T03:53:06.297Z,101438.91
2018-08-10T03:55:36.520Z,101440.19
2018-08-10T03:58:06.675Z,101443.18
2018-08-10T04:00:36.827Z,101444.51
2018-08-10T04:03:07.402Z,101448.80
2018-08-10T04:05:44.213Z,101451.15
2018-08-10T04:08:14.443Z,101454.58
2018-08-10T04:10:44.550Z,101449.64
2018-08-10T04:13:14.665Z,101461.50
2018-08-10T04:15:44.961Z,101457.36
2018-08-10T04:18:15.045Z,101460.64
2018-08-10T04:20:45.195Z,101465.27
2018-08-10T04:23:15.301Z,101467.06
2018-08-10T04:25:45.456Z,101467.06
2018-08-10T04:28:15.576Z,101482.15
2018-08-10T04:30:45.728Z,101478.41
2018-08-10T04:33:15.791Z,101478.41
2018-08-10T04:35:45.941Z,101484.58
2018-08-10T04:38:16.016Z,101488.84
2018-08-10T04:40:46.148Z,101494.09
2018-08-10T04:43:16.192Z,101491.16
2018-08-10T04:45:46.350Z,101488.19
2018-08-10T04:48:16.566Z,101498.78
2018-08-10T04:50:46.689Z,101501.37
2018-08-10T04:53:16.808Z,101505.66
2018-08-10T04:55:47.093Z,101507.87
2018-08-10T04:58:17.221Z,101510.06
2018-08-10T05:00:47.359Z,101517.48
2018-08-10T05:03:17.562Z,101517.95
2018-08-10T05:05:47.806Z,101520.55
2018-08-10T05:08:17.922Z,101520.45
2018-08-10T05:10:48.104Z,101521.98
2018-08-10T05:13:18.216Z,101534.36
2018-08-10T05:15:48.462Z,101532.49
2018-08-10T05:18:18.543Z,101533.95
2018-08-10T05:20:48.684Z,101533.57
2018-08-10T05:23:18.790Z,101536.16
2018-08-10T05:25:48.981Z,101540.55
2018-08-10T05:28:19.065Z,101544.30
2018-08-10T05:30:49.343Z,101542.95
2018-08-10T05:33:19.480Z,101541.23
2018-08-10T05:35:49.679Z,101545.13
2018-08-10T05:38:19.833Z,101545.10
2018-08-10T05:40:50.046Z,101549.47
2018-08-10T05:43:20.172Z,101547.42
2018-08-10T05:45:55.497Z,101552.02
2018-08-10T05:48:25.664Z,101545.48
2018-08-10T05:50:55.838Z,101550.88
2018-08-10T05:53:25.919Z,101545.91
2018-08-10T05:55:56.159Z,101549.74
2018-08-10T05:58:26.339Z,101545.53
2018-08-10T06:00:56.539Z,101548.09
2018-08-10T06:03:27.540Z,101559.14
2018-08-10T06:05:57.735Z,101550.88
2018-08-10T06:08:27.848Z,101549.35
2018-08-10T06:10:57.977Z,101550.34
2018-08-10T06:13:28.114Z,101558.99
2018-08-10T06:15:58.305Z,101557.62
2018-08-10T06:18:28.457Z,101560.19
2018-08-10T06:20:58.539Z,101555.94
2018-08-10T06:23:28.630Z,101549.41
2018-08-10T06:25:58.782Z,101553.75
2018-08-10T06:28:28.901Z,101551.41
2018-08-10T06:30:59.064Z,101552.44
2018-08-10T06:33:29.154Z,101547.68
2018-08-10T06:35:59.286Z,101543.50
2018-08-10T06:38:29.409Z,101545.17
2018-08-10T06:40:59.668Z,101544.11
2018-08-10T06:43:29.751Z,101545.07
2018-08-10T06:45:59.926Z,101545.73
2018-08-10T06:48:30.088Z,101549.48
2018-08-10T06:51:00.159Z,101556.87
2018-08-10T06:53:30.309Z,101560.16
2018-08-10T06:56:01.496Z,101558.94
2018-08-10T06:58:31.635Z,101555.85
2018-08-10T07:01:01.806Z,101556.84
2018-08-10T07:03:31.912Z,101566.59
2018-08-10T07:06:02.052Z,101572.73
2018-08-10T07:08:32.361Z,101571.41
2018-08-10T07:11:02.483Z,101569.37
2018-08-10T07:13:32.767Z,101594.73
2018-08-10T07:16:02.964Z,101596.22
2018-08-10T07:18:33.573Z,101592.52
2018-08-10T07:21:03.719Z,101616.91
2018-08-10T07:23:33.894Z,101602.02
2018-08-10T07:26:03.975Z,101609.53
2018-08-10T07:28:34.140Z,101599.36
2018-08-10T07:31:04.209Z,101597.30
2018-08-10T07:33:34.407Z,101595.27
2018-08-10T07:36:04.567Z,101597.25
2018-08-10T07:38:34.707Z,101593.40
2018-08-10T07:41:04.789Z,101593.02
2018-08-10T07:43:34.943Z,101582.23
2018-08-10T07:46:05.050Z,101582.47
2018-08-10T07:48:39.100Z,101585.62
2018-08-10T07:51:09.585Z,101587.84
2018-08-10T07:53:39.722Z,101589.84
2018-08-10T07:56:09.806Z,101597.45
2018-08-10T07:58:39.915Z,101589.33
2018-08-10T08:01:10.077Z,101587.25
2018-08-10T08:03:40.300Z,101582.78
2018-08-10T08:06:10.548Z,101581.99
2018-08-10T08:08:40.657Z,101585.65
2018-08-10T08:11:10.879Z,101589.33
2018-08-10T08:13:41.071Z,101593.22
2018-08-10T08:16:11.482Z,101589.70
2018-08-10T08:18:41.621Z,101588.83
2018-08-10T08:21:12.835Z,101593.72
2018-08-10T08:23:42.915Z,101599.55
2018-08-10T08:26:13.150Z,101607.14
2018-08-10T08:28:43.287Z,101609.80
2018-08-10T08:31:13.520Z,101603.61
2018-08-10T08:34:05.973Z,101610.78
2018-08-10T08:36:36.734Z,101598.59
2018-08-10T08:41:21.177Z,101607.88
2018-08-10T08:46:02.334Z,101606.53
2018-08-10T08:48:35.905Z,101612.21
2018-08-10T08:51:08.613Z,101612.00
2018-08-10T08:53:38.810Z,101612.61
2018-08-10T08:56:10.687Z,101604.42
2018-08-10T08:58:41.838Z,101597.44
2018-08-10T09:01:12.300Z,101603.33
2018-08-10T09:05:03.129Z,101612.01
2018-08-10T09:07:33.545Z,101605.34
2018-08-10T09:10:06.004Z,101606.03
2018-08-10T09:12:36.168Z,101607.04
2018-08-10T09:15:09.150Z,101604.89
2018-08-10T09:17:39.440Z,101598.84
2018-08-10T09:20:10.540Z,101611.58
2018-08-10T09:22:40.831Z,101608.14
2018-08-10T09:25:15.152Z,101618.73
2018-08-10T09:27:45.368Z,101619.58
2018-08-10T09:30:18.208Z,101615.80
2018-08-10T09:32:48.471Z,101619.06
2018-08-10T09:35:18.673Z,101623.54
2018-08-10T09:37:48.843Z,101624.02
2018-08-10T09:40:20.529Z,101623.00
2018-08-10T09:42:50.812Z,101631.91
2018-08-10T09:45:21.087Z,101640.28
2018-08-10T09:50:21.537Z,101634.48
2018-08-10T09:53:01.496Z,101620.71
2018-08-10T09:55:33.858Z,101629.42
2018-08-10T09:58:12.903Z,101623.71
2018-08-10T10:00:48.325Z,101624.62
2018-08-10T10:03:20.912Z,101616.14
2018-08-10T10:05:52.053Z,101619.44
2018-08-10T10:08:22.775Z,101628.52
2018-08-10T10:10:52.998Z,101621.27
2018-08-10T10:13:23.311Z,101620.73
2018-08-10T10:15:53.434Z,101620.37
2018-08-10T10:18:23.649Z,101615.58
2018-08-10T10:20:53.919Z,101618.48
2018-08-10T10:23:24.062Z,101623.25
2018-08-10T10:25:54.163Z,101611.41
2018-08-10T10:28:24.374Z,101618.61
2018-08-10T10:30:54.510Z,101619.66
2018-08-10T10:33:24.621Z,101617.11
2018-08-10T10:35:54.823Z,101611.30
2018-08-10T10:38:25.148Z,101616.11
2018-08-10T10:40:55.218Z,101605.55
2018-08-10T10:43:25.329Z,101611.03
2018-08-10T10:45:55.428Z,101608.41
2018-08-10T10:48:25.596Z,101604.27
2018-08-10T10:50:55.828Z,101591.07
2018-08-10T10:53:25.968Z,101595.37
2018-08-10T10:55:56.212Z,101596.84
2018-08-10T10:58:26.357Z,101601.70
2018-08-10T11:00:56.584Z,101610.80
2018-08-10T11:03:26.685Z,101606.37
2018-08-10T11:05:56.821Z,101609.61
2018-08-10T11:08:27.018Z,101608.19
2018-08-10T11:10:57.187Z,101615.66
2018-08-10T11:13:27.450Z,101610.05
2018-08-10T11:15:57.557Z,101598.25
2018-08-10T11:18:27.804Z,101601.22
2018-08-10T11:20:57.836Z,101597.03
2018-08-10T11:23:27.915Z,101593.34
2018-08-10T11:25:58.089Z,101596.36
2018-08-10T11:28:28.248Z,101599.11
2018-08-10T11:30:58.387Z,101594.59
2018-08-10T11:33:28.597Z,101592.42
2018-08-10T11:35:58.722Z,101586.20
2018-08-10T11:38:28.864Z,101590.41
2018-08-10T11:40:59.079Z,101590.45
2018-08-10T11:43:29.247Z,101591.80
2018-08-10T11:45:59.414Z,101580.87
2018-08-10T11:48:29.588Z,101580.47
2018-08-10T11:50:59.652Z,101593.33
2018-08-10T11:53:29.893Z,101587.41
2018-08-10T11:56:00.058Z,101583.47
2018-08-10T11:58:30.305Z,101592.48
2018-08-10T12:01:00.528Z,101588.58
2018-08-10T12:03:30.800Z,101587.85
2018-08-10T12:06:00.998Z,101583.53
2018-08-10T12:08:31.508Z,101582.68
2018-08-10T12:11:01.557Z,101569.27
2018-08-10T12:13:31.721Z,101587.69
2018-08-10T12:16:01.965Z,101580.45
2018-08-10T12:18:32.256Z,101577.88
2018-08-10T12:21:02.412Z,101580.23
2018-08-10T12:23:32.595Z,101572.85
2018-08-10T12:26:02.715Z,101575.47
2018-08-10T12:28:32.860Z,101578.73
2018-08-10T12:31:03.044Z,101572.77
2018-08-10T12:33:33.234Z,101570.34
2018-08-10T12:36:03.525Z,101563.81
2018-08-10T12:38:33.837Z,101568.49
2018-08-10T12:41:04.037Z,101570.20
2018-08-10T12:43:34.307Z,101571.45
2018-08-10T12:46:04.572Z,101562.98
2018-08-10T12:48:34.734Z,101570.22
2018-08-10T12:51:04.853Z,101579.03
2018-08-10T12:53:35.080Z,101581.53
2018-08-10T12:56:06.032Z,101591.31
2018-08-10T12:58:36.194Z,101587.71
2018-08-10T13:01:09.212Z,101582.06
2018-08-10T13:03:39.453Z,101583.90
2018-08-10T13:06:09.626Z,101588.61
2018-08-10T13:08:39.822Z,101576.47
2018-08-10T13:11:09.967Z,101584.03
2018-08-10T13:13:40.473Z,101582.41
2018-08-10T13:16:10.730Z,101581.77
2018-08-10T13:18:40.919Z,101580.56
2018-08-10T13:21:11.105Z,101575.34
2018-08-10T13:23:41.251Z,101569.05
2018-08-10T13:26:11.449Z,101567.27
2018-08-10T13:28:41.705Z,101575.63
2018-08-10T13:31:12.156Z,101583.66
2018-08-10T13:33:42.470Z,101577.13
2018-08-10T13:36:12.628Z,101579.11
2018-08-10T13:38:42.756Z,101568.06
2018-08-10T13:41:12.911Z,101573.95
2018-08-10T13:43:43.171Z,101565.22
2018-08-10T13:46:13.341Z,101559.52
2018-08-10T13:48:43.589Z,101560.32
2018-08-10T13:51:13.765Z,101557.83
2018-08-10T13:53:43.954Z,101558.13
2018-08-10T13:56:14.281Z,101561.45
2018-08-10T13:58:44.512Z,101573.37
2018-08-10T14:01:15.047Z,101564.29
2018-08-10T14:03:45.238Z,101567.78
2018-08-10T14:06:15.353Z,101558.58
2018-08-10T14:08:45.477Z,101548.91
2018-08-10T14:11:15.638Z,101547.78
2018-08-10T14:13:45.965Z,101539.02
2018-08-10T14:16:16.295Z,101543.50
2018-08-10T14:18:46.518Z,101536.91
2018-08-10T14:21:16.737Z,101534.56
2018-08-10T14:23:46.911Z,101534.97
2018-08-10T14:26:17.018Z,101534.33
2018-08-10T14:28:47.195Z,101542.34
2018-08-10T14:31:17.404Z,101538.83
2018-08-10T14:33:47.625Z,101535.97
2018-08-10T14:36:17.860Z,101520.92
2018-08-10T14:38:48.113Z,101520.66
2018-08-10T14:41:18.461Z,101527.00
2018-08-10T14:43:48.707Z,101528.83
2018-08-10T14:46:18.827Z,101523.88
2018-08-10T14:48:49.060Z,101525.42
2018-08-10T14:51:19.390Z,101521.85
2018-08-10T14:53:49.712Z,101516.07
2018-08-10T14:56:19.834Z,101507.09
2018-08-10T14:58:50.012Z,101508.31
2018-08-10T15:01:20.174Z,101502.97
2018-08-10T15:03:50.387Z,101506.16
2018-08-10T15:06:20.527Z,101508.80
2018-08-10T15:08:50.792Z,101511.02
2018-08-10T15:11:20.997Z,101510.52
2018-08-10T15:13:51.227Z,101502.86
2018-08-10T15:16:21.411Z,101509.92
2018-08-10T15:18:51.596Z,101505.78
2018-08-10T15:21:21.773Z,101493.92
2018-08-10T15:23:51.935Z,101492.23
2018-08-10T15:26:22.132Z,101494.93
2018-08-10T15:28:52.281Z,101491.83
2018-08-10T15:31:22.431Z,101484.14
2018-08-10T15:33:52.653Z,101484.23
2018-08-10T15:36:22.828Z,101485.00
2018-08-10T15:38:53.121Z,101480.31
2018-08-10T15:41:23.265Z,101484.01
2018-08-10T15:43:53.449Z,101482.98
2018-08-10T15:46:23.558Z,101481.66
2018-08-10T15:48:53.903Z,101478.43
2018-08-10T15:51:24.023Z,101474.91
2018-08-10T15:53:54.245Z,101475.16
2018-08-10T15:56:24.492Z,101478.50
2018-08-10T15:58:54.503Z,101474.84
2018-08-10T16:01:24.611Z,101470.98
2018-08-10T16:03:55.007Z,101471.64
2018-08-10T16:06:25.154Z,101469.78
2018-08-10T16:08:55.299Z,101466.84
2018-08-10T16:11:25.443Z,101459.82
2018-08-10T16:13:55.753Z,101461.08
2018-08-10T16:16:25.919Z,101461.98
2018-08-10T16:18:55.992Z,101457.72
2018-08-10T16:21:26.126Z,101453.70
2018-08-10T16:23:56.240Z,101456.41
2018-08-10T16:26:26.350Z,101454.22
2018-08-10T16:28:56.592Z,101464.48
2018-08-10T16:31:26.787Z,101459.90
2018-08-10T16:33:56.924Z,101446.03
2018-08-10T16:36:27.042Z,101450.92
2018-08-10T16:38:57.266Z,101451.89
2018-08-10T16:41:27.357Z,101449.78
2018-08-10T16:43:57.662Z,101458.54
2018-08-10T16:46:27.815Z,101458.83
2018-08-10T16:48:58.006Z,101449.91
2018-08-10T16:51:28.103Z,101451.86
2018-08-10T16:53:58.382Z,101451.31
2018-08-10T16:56:28.561Z,101443.05
2018-08-10T16:58:58.766Z,101446.77
2018-08-10T17:01:29.048Z,101449.31
2018-08-10T17:03:59.191Z,101451.39
2018-08-10T17:06:29.325Z,101444.08
2018-08-10T17:08:59.563Z,101447.22
2018-08-10T17:11:29.722Z,101436.13
2018-08-10T17:13:59.970Z,101427.98
2018-08-10T17:16:30.126Z,101431.91
2018-08-10T17:19:00.356Z,101434.63
2018-08-10T17:21:30.559Z,101421.39
2018-08-10T17:24:00.862Z,101426.92
2018-08-10T17:26:31.115Z,101427.41
2018-08-10T17:29:01.263Z,101429.23
2018-08-10T17:31:31.371Z,101424.08
2018-08-10T17:34:01.458Z,101423.16
2018-08-10T17:36:32.265Z,101422.73
2018-08-10T17:39:02.509Z,101422.16
2018-08-10T17:41:32.643Z,101408.89
2018-08-10T17:44:02.840Z,101424.20
2018-08-10T17:46:33.200Z,101416.20
2018-08-10T17:49:03.368Z,101423.35
2018-08-10T17:51:33.541Z,101414.61
2018-08-10T17:54:03.901Z,101415.07
2018-08-10T17:56:34.159Z,101419.28
2018-08-10T17:59:04.560Z,101410.08
2018-08-10T18:01:34.639Z,101417.73
2018-08-10T18:04:04.919Z,101415.09
2018-08-10T18:06:35.047Z,101424.17
2018-08-10T18:09:08.174Z,101416.75
2018-08-10T18:11:38.857Z,101414.83
2018-08-10T18:14:09.932Z,101420.13
2018-08-10T18:16:40.035Z,101417.08
2018-08-10T18:19:10.293Z,101414.89
2018-08-10T18:21:40.372Z,101413.31
2018-08-10T18:24:10.587Z,101411.12
2018-08-10T18:26:40.791Z,101416.02
2018-08-10T18:29:11.000Z,101413.60
2018-08-10T18:31:41.339Z,101417.98
2018-08-10T18:34:11.560Z,101417.02
2018-08-10T18:36:41.771Z,101411.78
2018-08-10T18:39:14.486Z,101413.03
2018-08-10T18:41:44.664Z,101411.81
2018-08-10T18:44:14.974Z,101415.02
2018-08-10T18:46:45.167Z,101404.62
2018-08-10T18:49:15.405Z,101416.58
2018-08-10T18:51:45.531Z,101414.64
2018-08-10T18:54:15.740Z,101415.98
2018-08-10T18:56:45.860Z,101415.50
2018-08-10T18:59:16.005Z,101415.73
2018-08-10T19:01:46.155Z,101419.27
2018-08-10T19:04:16.409Z,101418.78
2018-08-10T19:06:46.697Z,101414.23
2018-08-10T19:09:16.918Z,101419.17
2018-08-10T19:11:47.120Z,101421.16
2018-08-10T19:14:17.412Z,101422.05
2018-08-10T19:16:48.087Z,101422.80
2018-08-10T19:19:19.036Z,101421.80
2018-08-10T19:21:49.842Z,101424.58
2018-08-10T19:24:20.255Z,101423.08
2018-08-10T19:26:50.560Z,101422.72
2018-08-10T19:29:20.806Z,101427.94
2018-08-10T19:31:51.049Z,101430.16
2018-08-10T19:34:21.320Z,101429.52
2018-08-10T19:36:51.695Z,101429.41
2018-08-10T19:39:21.975Z,101435.44
2018-08-10T19:41:52.221Z,101435.95
2018-08-10T19:44:22.406Z,101438.83
2018-08-10T19:46:52.604Z,101436.88
2018-08-10T19:49:22.874Z,101429.41
2018-08-10T19:51:53.169Z,101436.35
2018-08-10T19:54:23.529Z,101433.62
2018-08-10T19:56:53.846Z,101429.28
2018-08-10T19:59:24.057Z,101433.71
2018-08-10T20:01:54.312Z,101429.33
2018-08-10T20:04:24.554Z,101436.23
2018-08-10T20:06:54.642Z,101429.77
2018-08-10T20:09:24.807Z,101419.58
2018-08-10T20:11:54.966Z,101425.00
2018-08-10T20:14:25.224Z,101425.75
2018-08-10T20:16:55.454Z,101415.40
2018-08-10T20:19:25.701Z,101410.05
2018-08-10T20:21:55.921Z,101420.40
2018-08-10T20:24:26.061Z,101422.09
2018-08-10T20:26:56.151Z,101413.87
2018-08-10T20:29:26.387Z,101415.86
2018-08-10T20:31:56.520Z,101407.92
2018-08-10T20:34:26.688Z,101408.73
2018-08-10T20:36:56.859Z,101411.16
2018-08-10T20:39:27.034Z,101403.94
2018-08-10T20:41:57.244Z,101401.62
2018-08-10T20:44:27.448Z,101401.62
2018-08-10T20:46:57.572Z,101397.51
2018-08-10T20:49:27.749Z,101391.17
2018-08-10T20:51:57.820Z,101389.92
2018-08-10T20:54:28.018Z,101392.42
2018-08-10T20:56:58.196Z,101401.48
2018-08-10T20:59:28.368Z,101401.05
2018-08-10T21:01:58.493Z,101400.89
2018-08-10T21:04:28.749Z,101400.89
2018-08-10T21:06:58.827Z,101402.40
2018-08-10T21:09:28.973Z,101395.58
2018-08-10T21:11:59.126Z,101399.59
2018-08-10T21:14:29.272Z,101400.20
2018-08-10T21:16:59.502Z,101397.77
2018-08-10T21:19:29.613Z,101400.78
2018-08-10T21:21:59.809Z,101403.55
2018-08-10T21:24:30.007Z,101396.75
2018-08-10T21:27:00.150Z,101396.61
2018-08-10T21:29:30.419Z,101398.42
2018-08-10T21:32:00.449Z,101397.19
2018-08-10T21:34:30.680Z,101391.47
2018-08-10T21:37:00.834Z,101384.72
2018-08-10T21:39:30.996Z,101390.34
2018-08-10T21:42:01.153Z,101386.88
2018-08-10T21:44:31.333Z,101390.48
2018-08-10T21:47:01.436Z,101382.27
2018-08-10T21:49:31.596Z,101385.89
2018-08-10T21:52:01.711Z,101376.91
2018-08-10T21:54:31.851Z,101388.98
2018-08-10T21:57:01.970Z,101385.23
2018-08-10T21:59:32.090Z,101387.78
2018-08-10T22:02:02.460Z,101386.15
2018-08-10T22:04:32.689Z,101387.00
2018-08-10T22:07:02.861Z,101378.05
2018-08-10T22:09:33.061Z,101377.78
2018-08-10T22:12:03.145Z,101381.31
2018-08-10T22:14:39.252Z,101376.97
2018-08-10T22:17:14.444Z,101368.47
2018-08-10T22:19:44.575Z,101372.39
2018-08-10T22:22:14.820Z,101374.41
2018-08-10T22:24:44.963Z,101369.97
2018-08-10T22:27:15.099Z,101373.58
2018-08-10T22:29:45.275Z,101372.08
2018-08-10T22:32:15.413Z,101366.55
2018-08-10T22:34:45.605Z,101372.25
2018-08-10T22:37:15.726Z,101373.90
2018-08-10T22:39:45.805Z,101375.23
2018-08-10T22:42:15.937Z,101366.19
2018-08-10T22:44:46.118Z,101377.09
2018-08-10T22:47:17.180Z,101370.96
2018-08-10T22:49:47.304Z,101375.30
2018-08-10T22:52:17.464Z,101370.94
2018-08-10T22:54:47.671Z,101367.05
2018-08-10T22:57:17.807Z,101370.71
2018-08-10T22:59:48.035Z,101367.58
2018-08-10T23:02:18.160Z,101370.84
2018-08-10T23:04:48.386Z,101360.88
2018-08-10T23:07:18.589Z,101360.13
2018-08-10T23:09:48.774Z,101365.00
2018-08-10T23:12:19.063Z,101361.93
2018-08-10T23:14:49.410Z,101356.05
2018-08-10T23:17:19.574Z,101359.16
2018-08-10T23:19:49.724Z,101357.00
2018-08-10T23:22:20.159Z,101354.67
2018-08-10T23:24:50.391Z,101353.62
2018-08-10T23:27:20.516Z,101358.23
2018-08-10T23:29:50.676Z,101355.62
2018-08-10T23:32:20.754Z,101349.73
2018-08-10T23:34:50.908Z,101345.09
2018-08-10T23:37:20.993Z,101349.06
2018-08-10T23:39:51.155Z,101344.30
2018-08-10T23:42:21.268Z,101342.41
2018-08-10T23:44:51.443Z,101339.16
2018-08-10T23:47:21.521Z,101338.34
2018-08-10T23:49:51.714Z,101338.84
2018-08-10T23:52:21.839Z,101340.48
2018-08-10T23:54:51.958Z,101338.65
2018-08-10T23:57:22.000Z,101340.55
2018-08-10T23:59:52.145Z,101337.77
